createdAt,value
2023-04-16T00:02:01.913Z,6.38
2023-04-16T00:04:29.047Z,11.13
2023-04-16T00:06:55.905Z,6.50
2023-04-16T00:09:22.590Z,6.55
2023-04-16T00:11:49.602Z,19.38
2023-04-16T00:14:16.273Z,13.13
2023-04-16T00:16:43.095Z,7.15
2023-04-16T00:19:10.230Z,10.60
2023-04-16T00:21:37.282Z,9.60
2023-04-16T00:24:04.294Z,11.63
2023-04-16T00:26:31.495Z,9.77
2023-04-16T00:28:58.177Z,4.63
2023-04-16T00:31:29.008Z,6.63
2023-04-16T00:33:56.112Z,10.40
2023-04-16T00:36:28.107Z,10.77
2023-04-16T00:38:56.241Z,7.18
2023-04-16T00:41:23.206Z,11.50
2023-04-16T00:43:50.737Z,14.25
2023-04-16T00:46:23.547Z,9.20
2023-04-16T00:48:51.711Z,14.85
2023-04-16T00:51:20.387Z,9.13
2023-04-16T00:53:47.775Z,6.95
2023-04-16T00:56:14.893Z,10.23
2023-04-16T00:58:41.708Z,13.20
2023-04-16T01:01:08.757Z,9.02
2023-04-16T01:03:41.348Z,10.10
2023-04-16T01:06:08.309Z,15.15
2023-04-16T01:08:35.163Z,12.35
2023-04-16T01:11:02.612Z,22.27
2023-04-16T01:13:29.842Z,8.60
2023-04-16T01:15:56.883Z,8.05
2023-04-16T01:18:23.976Z,14.52
2023-04-16T01:20:51.311Z,40.25
2023-04-16T01:23:21.512Z,10.82
2023-04-16T01:25:48.437Z,15.15
2023-04-16T01:28:15.102Z,19.70
2023-04-16T01:30:41.752Z,30.88
2023-04-16T01:33:12.861Z,22.23
2023-04-16T01:35:41.144Z,24.45
2023-04-16T01:38:09.546Z,12.50
2023-04-16T01:40:37.385Z,13.02
2023-04-16T01:43:04.639Z,15.82
2023-04-16T01:45:32.566Z,18.75
2023-04-16T01:47:59.321Z,22.58
2023-04-16T01:50:26.014Z,16.13
2023-04-16T01:52:52.915Z,15.90
2023-04-16T01:55:22.571Z,9.65
2023-04-16T01:57:49.113Z,15.27
2023-04-16T02:00:16.007Z,15.35
2023-04-16T02:02:42.752Z,14.57
2023-04-16T02:05:09.684Z,9.55
2023-04-16T02:07:36.395Z,20.58
2023-04-16T02:10:04.706Z,22.60
2023-04-16T02:12:31.270Z,11.38
2023-04-16T02:14:57.983Z,9.65
2023-04-16T02:17:24.649Z,13.27
2023-04-16T02:19:51.264Z,12.32
2023-04-16T02:22:17.841Z,10.50
2023-04-16T02:24:44.540Z,9.45
2023-04-16T02:27:11.352Z,17.35
2023-04-16T02:29:38.032Z,16.45
2023-04-16T02:32:04.945Z,13.20
2023-04-16T02:34:32.126Z,8.57
2023-04-16T02:36:58.686Z,22.25
2023-04-16T02:39:25.582Z,15.07
2023-04-16T02:41:52.432Z,13.77
2023-04-16T02:44:18.959Z,17.42
2023-04-16T02:46:45.552Z,9.80
2023-04-16T02:49:12.275Z,11.50
2023-04-16T02:51:38.937Z,16.58
2023-04-16T02:54:05.730Z,15.00
2023-04-16T02:56:32.348Z,14.15
2023-04-16T02:58:59.017Z,12.57
2023-04-16T03:01:25.735Z,13.95
2023-04-16T03:03:52.402Z,25.63
2023-04-16T03:06:19.021Z,14.90
2023-04-16T03:08:45.811Z,34.53
2023-04-16T03:11:12.420Z,12.20
2023-04-16T03:13:39.064Z,15.57
2023-04-16T03:16:05.973Z,16.92
2023-04-16T03:18:32.608Z,17.60
2023-04-16T03:20:59.320Z,15.65
2023-04-16T03:23:26.393Z,16.25
2023-04-16T03:25:53.002Z,18.05
2023-04-16T03:28:19.625Z,20.65
2023-04-16T03:30:52.936Z,20.30
2023-04-16T03:33:20.685Z,21.60
2023-04-16T03:35:47.269Z,37.67
2023-04-16T03:38:13.877Z,13.05
2023-04-16T03:40:41.170Z,15.52
2023-04-16T03:43:07.745Z,13.95
2023-04-16T03:45:34.465Z,18.40
2023-04-16T03:48:01.037Z,14.80
2023-04-16T03:50:27.577Z,13.73
2023-04-16T03:52:54.311Z,12.75
2023-04-16T03:55:20.982Z,17.90
2023-04-16T03:57:47.525Z,17.38
2023-04-16T04:00:14.346Z,17.65
2023-04-16T04:02:41.252Z,12.90
2023-04-16T04:05:08.322Z,21.98
2023-04-16T04:07:35.147Z,18.80
2023-04-16T04:10:01.832Z,11.32
2023-04-16T04:12:28.428Z,20.02
2023-04-16T04:14:54.954Z,17.38
2023-04-16T04:17:21.595Z,11.75
2023-04-16T04:20:00.409Z,14.95
2023-04-16T04:22:28.017Z,11.90
2023-04-16T04:24:54.652Z,14.45
2023-04-16T04:27:21.236Z,14.32
2023-04-16T04:29:47.869Z,11.77
2023-04-16T04:32:14.726Z,25.67
2023-04-16T04:34:41.370Z,10.50
2023-04-16T04:37:08.101Z,11.50
2023-04-16T04:39:34.625Z,16.73
2023-04-16T04:42:03.287Z,18.02
2023-04-16T04:44:29.877Z,10.15
2023-04-16T04:46:56.454Z,17.65
2023-04-16T04:49:23.007Z,12.05
2023-04-16T04:51:49.682Z,21.23
2023-04-16T04:54:16.233Z,12.15
2023-04-16T04:56:45.366Z,16.13
2023-04-16T04:59:12.733Z,18.70
2023-04-16T05:01:39.514Z,13.68
2023-04-16T05:04:06.444Z,20.00
2023-04-16T05:06:33.188Z,19.65
2023-04-16T05:08:59.717Z,34.97
2023-04-16T05:11:26.449Z,23.05
2023-04-16T05:13:53.082Z,12.57
2023-04-16T05:16:19.666Z,27.45
2023-04-16T05:18:46.453Z,23.83
2023-04-16T05:21:13.201Z,23.75
2023-04-16T05:23:40.026Z,29.50
2023-04-16T05:26:06.659Z,40.47
2023-04-16T05:28:33.881Z,21.90
2023-04-16T05:31:00.852Z,18.85
2023-04-16T05:33:27.509Z,13.10
2023-04-16T05:35:54.076Z,22.50
2023-04-16T05:38:20.684Z,17.52
2023-04-16T05:40:47.447Z,22.05
2023-04-16T05:43:14.070Z,23.25
2023-04-16T05:45:41.497Z,21.30
2023-04-16T05:48:12.430Z,20.27
2023-04-16T05:50:39.238Z,24.08
2023-04-16T05:53:07.754Z,19.70
2023-04-16T05:55:36.908Z,53.78
2023-04-16T05:58:06.666Z,13.93
2023-04-16T06:00:33.547Z,23.55
2023-04-16T06:03:00.429Z,12.88
2023-04-16T06:05:27.184Z,19.10
2023-04-16T06:07:53.809Z,20.52
2023-04-16T06:10:21.813Z,24.05
2023-04-16T06:12:48.638Z,17.35
2023-04-16T06:15:16.682Z,45.78
2023-04-16T06:17:43.480Z,12.43
2023-04-16T06:20:10.932Z,13.73
2023-04-16T06:22:37.707Z,23.33
2023-04-16T06:25:04.840Z,16.30
2023-04-16T06:27:31.585Z,37.33
2023-04-16T06:29:58.585Z,23.33
2023-04-16T06:32:25.584Z,20.98
2023-04-16T06:34:52.299Z,19.85
2023-04-16T06:37:18.948Z,15.45
2023-04-16T06:39:45.758Z,48.85
2023-04-16T06:42:12.521Z,19.10
2023-04-16T06:44:39.340Z,31.38
2023-04-16T06:47:06.069Z,18.30
2023-04-16T06:49:32.882Z,23.83
2023-04-16T06:51:59.690Z,22.40
2023-04-16T06:54:26.404Z,16.17
2023-04-16T06:56:53.038Z,18.30
2023-04-16T06:59:19.703Z,41.72
2023-04-16T07:01:46.333Z,14.07
2023-04-16T07:04:13.111Z,20.73
2023-04-16T07:06:39.729Z,25.42
2023-04-16T07:09:06.645Z,19.48
2023-04-16T07:11:33.924Z,25.92
2023-04-16T07:14:00.667Z,56.50
2023-04-16T07:16:27.418Z,19.45
2023-04-16T07:18:54.254Z,44.20
2023-04-16T07:21:21.151Z,16.48
2023-04-16T07:23:47.795Z,20.35
2023-04-16T07:26:14.491Z,30.05
2023-04-16T07:28:41.654Z,12.55
2023-04-16T07:31:08.424Z,19.33
2023-04-16T07:33:35.157Z,34.45
2023-04-16T07:36:01.937Z,21.30
2023-04-16T07:38:28.471Z,17.33
2023-04-16T07:40:56.740Z,23.60
2023-04-16T07:43:23.663Z,20.52
2023-04-16T07:45:50.595Z,21.17
2023-04-16T07:48:17.244Z,16.77
2023-04-16T07:50:44.279Z,33.55
2023-04-16T07:53:11.016Z,16.60
2023-04-16T07:55:37.780Z,14.55
2023-04-16T07:58:06.499Z,12.98
2023-04-16T08:00:33.198Z,10.23
2023-04-16T08:03:00.041Z,21.88
2023-04-16T08:05:27.700Z,12.00
2023-04-16T08:07:54.341Z,14.15
2023-04-16T08:10:21.519Z,14.32
2023-04-16T08:12:48.416Z,13.98
2023-04-16T08:15:15.127Z,28.50
2023-04-16T08:17:41.865Z,19.40
2023-04-16T08:20:09.498Z,32.10
2023-04-16T08:22:37.127Z,21.17
2023-04-16T08:25:04.468Z,18.10
2023-04-16T08:27:31.139Z,29.08
2023-04-16T08:29:57.832Z,20.35
2023-04-16T08:32:24.733Z,17.33
2023-04-16T08:34:51.436Z,27.60
2023-04-16T08:37:18.193Z,16.02
2023-04-16T08:39:44.891Z,15.80
2023-04-16T08:42:22.719Z,19.77
2023-04-16T08:44:53.324Z,17.05
2023-04-16T08:47:23.044Z,17.40
2023-04-16T08:49:50.297Z,20.77
2023-04-16T08:52:22.104Z,23.73
2023-04-16T08:55:01.474Z,31.45
2023-04-16T08:57:39.027Z,22.20
2023-04-16T09:00:07.899Z,14.73
2023-04-16T09:02:35.142Z,16.00
2023-04-16T09:05:05.256Z,53.78
2023-04-16T09:07:33.508Z,41.25
2023-04-16T09:10:01.461Z,19.13
2023-04-16T09:12:28.379Z,31.83
2023-04-16T09:14:57.038Z,20.70
2023-04-16T09:17:23.796Z,23.02
2023-04-16T09:19:50.493Z,21.85
2023-04-16T09:22:17.449Z,34.08
2023-04-16T09:24:44.156Z,20.75
2023-04-16T09:27:13.935Z,31.83
2023-04-16T09:29:42.234Z,40.22
2023-04-16T09:32:11.269Z,18.20
2023-04-16T09:35:02.528Z,21.55
2023-04-16T09:37:30.414Z,19.10
2023-04-16T09:40:04.682Z,16.35
2023-04-16T09:42:33.584Z,44.03
2023-04-16T09:45:02.603Z,28.70
2023-04-16T09:47:44.899Z,25.38
2023-04-16T09:50:19.178Z,18.17
2023-04-16T09:52:49.741Z,19.25
2023-04-16T09:55:16.325Z,18.50
2023-04-16T09:57:43.082Z,25.35
2023-04-16T10:00:11.200Z,16.63
2023-04-16T10:02:42.444Z,21.02
2023-04-16T10:05:09.767Z,18.45
2023-04-16T10:07:37.841Z,18.65
2023-04-16T10:10:05.056Z,23.75
2023-04-16T10:12:32.963Z,19.73
2023-04-16T10:14:59.944Z,24.80
2023-04-16T10:17:27.375Z,18.67
2023-04-16T10:19:55.536Z,19.08
2023-04-16T10:22:22.810Z,18.77
2023-04-16T10:24:51.390Z,25.08
2023-04-16T10:27:19.410Z,29.25
2023-04-16T10:29:46.650Z,19.57
2023-04-16T10:32:14.171Z,21.15
2023-04-16T10:34:41.217Z,19.38
2023-04-16T10:37:07.840Z,15.00
2023-04-16T10:39:38.663Z,21.85
2023-04-16T10:42:10.349Z,23.70
2023-04-16T10:44:37.560Z,19.33
2023-04-16T10:47:12.011Z,17.00
2023-04-16T10:49:39.381Z,14.68
2023-04-16T10:52:15.002Z,23.58
2023-04-16T10:54:41.898Z,18.10
2023-04-16T10:57:12.346Z,18.25
2023-04-16T10:59:41.940Z,27.52
2023-04-16T11:02:17.625Z,29.25
2023-04-16T11:04:49.838Z,26.45
2023-04-16T11:07:40.738Z,21.13
2023-04-16T11:10:12.865Z,20.20
2023-04-16T11:12:41.471Z,22.90
2023-04-16T11:15:09.804Z,19.70
2023-04-16T11:17:54.631Z,37.45
2023-04-16T11:20:28.587Z,19.30
2023-04-16T11:22:57.325Z,25.98
2023-04-16T11:25:25.944Z,22.40
2023-04-16T11:27:53.463Z,18.10
2023-04-16T11:30:35.500Z,21.10
2023-04-16T11:33:10.008Z,22.40
2023-04-16T11:35:39.309Z,24.65
2023-04-16T11:38:07.315Z,22.25
2023-04-16T11:40:34.460Z,23.13
2023-04-16T11:43:13.530Z,19.05
2023-04-16T11:45:53.641Z,25.53
2023-04-16T11:48:20.244Z,24.92
2023-04-16T11:50:56.482Z,33.50
2023-04-16T11:53:23.077Z,20.02
2023-04-16T11:55:49.888Z,21.73
2023-04-16T11:58:16.661Z,28.20
2023-04-16T12:00:45.187Z,29.58
2023-04-16T12:03:12.102Z,22.52
2023-04-16T12:05:40.973Z,20.13
2023-04-16T12:08:09.844Z,21.23
2023-04-16T12:10:56.064Z,30.60
2023-04-16T12:13:23.447Z,16.50
2023-04-16T12:15:54.856Z,18.02
2023-04-16T12:18:23.788Z,22.63
2023-04-16T12:20:53.622Z,19.23
2023-04-16T12:23:27.272Z,18.60
2023-04-16T12:25:54.477Z,22.42
2023-04-16T12:28:31.652Z,22.95
2023-04-16T12:30:58.723Z,16.45
2023-04-16T12:33:25.415Z,21.67
2023-04-16T12:35:52.738Z,25.30
2023-04-16T12:38:20.144Z,29.60
2023-04-16T12:40:47.837Z,36.88
2023-04-16T12:43:14.480Z,21.38
2023-04-16T12:45:41.535Z,27.65
2023-04-16T12:48:08.249Z,24.30
2023-04-16T12:50:35.149Z,20.45
2023-04-16T12:53:01.860Z,24.27
2023-04-16T12:55:28.588Z,27.15
2023-04-16T12:57:55.279Z,24.10
2023-04-16T13:00:22.699Z,26.57
2023-04-16T13:02:49.639Z,23.20
2023-04-16T13:05:19.301Z,25.83
2023-04-16T13:07:46.371Z,23.42
2023-04-16T13:10:13.682Z,22.17
2023-04-16T13:12:40.409Z,21.50
2023-04-16T13:15:07.836Z,28.80
2023-04-16T13:17:34.492Z,27.95
2023-04-16T13:20:01.331Z,23.80
2023-04-16T13:22:28.374Z,17.33
2023-04-16T13:24:55.464Z,33.57
2023-04-16T13:27:22.039Z,25.25
2023-04-16T13:29:48.682Z,23.48
2023-04-16T13:32:15.525Z,19.13
2023-04-16T13:34:42.654Z,23.58
2023-04-16T13:37:09.244Z,22.87
2023-04-16T13:39:35.879Z,27.52
2023-04-16T13:42:02.715Z,19.38
2023-04-16T13:44:29.640Z,18.92
2023-04-16T13:46:56.681Z,19.92
2023-04-16T13:49:23.566Z,17.50
2023-04-16T13:51:50.713Z,18.73
2023-04-16T13:54:17.546Z,23.50
2023-04-16T13:56:44.437Z,25.23
2023-04-16T13:59:11.328Z,30.40
2023-04-16T14:01:38.412Z,22.37
2023-04-16T14:04:07.184Z,23.33
2023-04-16T14:06:34.911Z,23.98
2023-04-16T14:09:01.980Z,20.98
2023-04-16T14:11:28.630Z,25.15
2023-04-16T14:13:55.591Z,19.43
2023-04-16T14:16:22.516Z,20.42
2023-04-16T14:18:49.108Z,17.67
2023-04-16T14:21:15.791Z,16.25
2023-04-16T14:23:42.786Z,19.05
2023-04-16T14:26:09.582Z,18.00
2023-04-16T14:28:36.429Z,17.60
2023-04-16T14:31:03.178Z,16.40
2023-04-16T14:33:30.019Z,17.27
2023-04-16T14:35:56.844Z,22.35
2023-04-16T14:38:23.497Z,15.97
2023-04-16T14:40:51.404Z,21.88
2023-04-16T14:43:18.049Z,24.15
2023-04-16T14:45:44.881Z,30.23
2023-04-16T14:48:11.535Z,17.02
2023-04-16T14:50:39.014Z,21.60
2023-04-16T14:53:06.012Z,19.75
2023-04-16T14:55:32.945Z,15.60
2023-04-16T14:57:59.979Z,15.38
2023-04-16T15:00:27.558Z,16.00
2023-04-16T15:02:57.746Z,16.93
2023-04-16T15:05:24.640Z,23.05
2023-04-16T15:07:51.333Z,15.77
2023-04-16T15:10:18.196Z,19.48
2023-04-16T15:12:45.196Z,19.17
2023-04-16T15:15:11.863Z,16.27
2023-04-16T15:17:38.632Z,19.75
2023-04-16T15:20:08.633Z,16.73
2023-04-16T15:22:35.687Z,20.73
2023-04-16T15:25:02.722Z,17.58
2023-04-16T15:27:29.361Z,21.13
2023-04-16T15:29:56.076Z,15.82
2023-04-16T15:32:22.956Z,14.25
2023-04-16T15:34:49.707Z,22.88
2023-04-16T15:37:16.743Z,19.67
2023-04-16T15:39:44.618Z,21.63
2023-04-16T15:42:11.778Z,23.13
2023-04-16T15:44:38.607Z,20.35
2023-04-16T15:47:06.488Z,25.85
2023-04-16T15:49:33.065Z,21.75
2023-04-16T15:52:00.462Z,25.00
2023-04-16T15:54:27.377Z,27.98
2023-04-16T15:56:54.021Z,22.45
2023-04-16T15:59:20.692Z,26.52
2023-04-16T16:01:47.355Z,28.50
2023-04-16T16:04:14.339Z,26.20
2023-04-16T16:06:41.103Z,26.00
2023-04-16T16:09:08.216Z,37.05
2023-04-16T16:11:37.171Z,22.52
2023-04-16T16:14:03.973Z,27.48
2023-04-16T16:16:31.794Z,19.20
2023-04-16T16:18:58.447Z,22.35
2023-04-16T16:21:25.131Z,29.92
2023-04-16T16:23:51.762Z,24.00
2023-04-16T16:26:18.429Z,22.85
2023-04-16T16:28:45.102Z,34.57
2023-04-16T16:31:12.526Z,23.13
2023-04-16T16:33:40.381Z,25.45
2023-04-16T16:36:10.862Z,21.50
2023-04-16T16:38:38.143Z,18.58
2023-04-16T16:41:04.723Z,22.47
2023-04-16T16:43:31.506Z,21.48
2023-04-16T16:45:58.133Z,27.88
2023-04-16T16:48:24.865Z,27.33
2023-04-16T16:50:51.543Z,24.67
2023-04-16T16:53:18.248Z,19.27
2023-04-16T16:55:44.786Z,25.45
2023-04-16T16:58:11.867Z,26.80
2023-04-16T17:00:38.636Z,28.27
2023-04-16T17:03:05.638Z,22.20
2023-04-16T17:05:32.591Z,21.10
2023-04-16T17:07:59.292Z,32.25
2023-04-16T17:10:25.978Z,20.05
2023-04-16T17:12:52.727Z,21.02
2023-04-16T17:15:21.819Z,19.50
2023-04-16T17:17:48.884Z,21.60
2023-04-16T17:20:15.710Z,22.33
2023-04-16T17:22:42.687Z,20.80
2023-04-16T17:25:09.672Z,24.45
2023-04-16T17:27:36.424Z,22.98
2023-04-16T17:30:05.456Z,24.77
2023-04-16T17:32:33.089Z,24.60
2023-04-16T17:35:01.218Z,29.55
2023-04-16T17:37:28.246Z,26.92
2023-04-16T17:39:54.987Z,26.00
2023-04-16T17:42:21.711Z,31.10
2023-04-16T17:44:48.310Z,27.23
2023-04-16T17:47:14.885Z,34.85
2023-04-16T17:49:41.729Z,21.08
2023-04-16T17:52:08.532Z,25.48
2023-04-16T17:54:35.305Z,35.90
2023-04-16T17:57:02.164Z,28.08
2023-04-16T17:59:28.993Z,26.08
2023-04-16T18:01:56.631Z,24.35
2023-04-16T18:04:23.652Z,25.27
2023-04-16T18:06:50.490Z,26.93
2023-04-16T18:09:17.361Z,22.52
2023-04-16T18:11:44.092Z,28.20
2023-04-16T18:14:13.423Z,25.45
2023-04-16T18:16:40.122Z,26.27
2023-04-16T18:19:07.050Z,29.63
2023-04-16T18:21:35.408Z,27.55
2023-04-16T18:24:03.563Z,27.08
2023-04-16T18:26:31.191Z,22.63
2023-04-16T18:28:58.971Z,30.23
2023-04-16T18:31:26.468Z,26.43
2023-04-16T18:33:58.141Z,24.33
2023-04-16T18:36:26.862Z,20.80
2023-04-16T18:39:01.539Z,26.80
2023-04-16T18:41:29.755Z,20.23
2023-04-16T18:43:56.607Z,22.47
2023-04-16T18:46:23.445Z,22.17
2023-04-16T18:48:50.189Z,29.55
2023-04-16T18:51:17.038Z,34.13
2023-04-16T18:53:45.552Z,30.42
2023-04-16T18:56:12.845Z,23.92
2023-04-16T18:58:39.558Z,32.67
2023-04-16T19:01:11.023Z,26.42
2023-04-16T19:03:38.565Z,26.50
2023-04-16T19:06:06.191Z,28.63
2023-04-16T19:08:33.095Z,33.97
2023-04-16T19:10:59.859Z,34.80
2023-04-16T19:13:26.572Z,30.48
2023-04-16T19:15:59.428Z,38.28
2023-04-16T19:18:26.524Z,28.92
2023-04-16T19:20:59.617Z,26.85
2023-04-16T19:23:27.004Z,26.10
2023-04-16T19:25:54.016Z,31.30
2023-04-16T19:28:22.701Z,26.52
2023-04-16T19:30:53.366Z,35.63
2023-04-16T19:33:20.510Z,31.23
2023-04-16T19:35:47.282Z,35.20
2023-04-16T19:38:14.230Z,34.03
2023-04-16T19:40:43.696Z,38.22
2023-04-16T19:43:10.506Z,29.47
2023-04-16T19:45:43.142Z,39.83
2023-04-16T19:48:09.889Z,34.22
2023-04-16T19:50:39.410Z,30.15
2023-04-16T19:53:06.321Z,36.53
2023-04-16T19:55:33.022Z,33.38
2023-04-16T19:58:05.651Z,40.50
2023-04-16T20:00:33.576Z,38.58
2023-04-16T20:03:00.745Z,40.47
2023-04-16T20:05:27.968Z,35.67
2023-04-16T20:07:55.227Z,36.33
2023-04-16T20:10:22.863Z,37.70
2023-04-16T20:12:50.983Z,39.22
2023-04-16T20:15:18.326Z,36.45
2023-04-16T20:17:45.521Z,39.25
2023-04-16T20:20:12.401Z,35.42
2023-04-16T20:22:40.068Z,41.13
2023-04-16T20:25:07.578Z,41.42
2023-04-16T20:27:34.853Z,42.75
2023-04-16T20:30:02.325Z,38.20
2023-04-16T20:32:29.110Z,39.88
2023-04-16T20:34:55.861Z,33.47
2023-04-16T20:37:22.640Z,41.03
2023-04-16T20:39:50.250Z,47.97
2023-04-16T20:42:16.930Z,37.33
2023-04-16T20:44:50.143Z,43.53
2023-04-16T20:47:21.872Z,37.53
2023-04-16T20:49:48.567Z,41.22
2023-04-16T20:52:16.133Z,44.65
2023-04-16T20:54:42.899Z,35.40
2023-04-16T20:57:10.745Z,38.72
2023-04-16T20:59:37.339Z,40.73
2023-04-16T21:02:04.273Z,43.10
2023-04-16T21:04:31.253Z,42.15
2023-04-16T21:06:58.055Z,38.22
2023-04-16T21:09:24.739Z,39.00
2023-04-16T21:11:51.425Z,42.33
2023-04-16T21:14:18.542Z,43.58
2023-04-16T21:16:45.134Z,42.15
2023-04-16T21:19:12.010Z,49.97
2023-04-16T21:21:38.950Z,52.75
2023-04-16T21:24:06.047Z,45.58
2023-04-16T21:26:32.820Z,48.95
2023-04-16T21:28:59.517Z,42.17
2023-04-16T21:31:26.221Z,38.28
2023-04-16T21:33:52.880Z,43.05
2023-04-16T21:36:19.423Z,54.15
2023-04-16T21:38:46.119Z,47.15
2023-04-16T21:41:12.881Z,45.40
2023-04-16T21:43:39.463Z,52.05
2023-04-16T21:46:06.066Z,44.25
2023-04-16T21:48:32.709Z,53.25
2023-04-16T21:51:06.240Z,47.80
2023-04-16T21:53:33.529Z,45.72
2023-04-16T21:56:00.156Z,44.40
2023-04-16T21:58:26.795Z,36.55
2023-04-16T22:00:53.840Z,44.45
2023-04-16T22:03:26.654Z,42.38
2023-04-16T22:05:57.974Z,46.55
2023-04-16T22:08:27.139Z,45.78
2023-04-16T22:10:57.910Z,46.35
2023-04-16T22:13:26.010Z,41.05
2023-04-16T22:15:53.192Z,41.25
2023-04-16T22:18:19.803Z,37.17
2023-04-16T22:20:47.432Z,49.97
2023-04-16T22:23:14.283Z,39.20
2023-04-16T22:25:40.932Z,46.55
2023-04-16T22:28:07.552Z,46.03
2023-04-16T22:30:34.282Z,44.97
2023-04-16T22:33:00.984Z,44.65
2023-04-16T22:35:27.546Z,44.70
2023-04-16T22:37:54.145Z,42.03
2023-04-16T22:40:21.156Z,41.17
2023-04-16T22:42:47.882Z,39.10
2023-04-16T22:45:14.471Z,39.83
2023-04-16T22:47:41.620Z,43.65
2023-04-16T22:50:08.805Z,49.35
2023-04-16T22:52:35.474Z,47.13
2023-04-16T22:55:02.233Z,51.58
2023-04-16T22:57:28.995Z,44.67
2023-04-16T22:59:56.341Z,41.15
2023-04-16T23:02:23.208Z,48.00
2023-04-16T23:04:50.008Z,46.58
2023-04-16T23:07:16.839Z,58.97
2023-04-16T23:09:43.496Z,53.13
2023-04-16T23:12:10.176Z,62.60
2023-04-16T23:14:37.080Z,61.33
2023-04-16T23:17:03.792Z,59.25
2023-04-16T23:19:31.756Z,72.72
2023-04-16T23:21:58.814Z,65.57
2023-04-16T23:24:25.682Z,60.75
2023-04-16T23:26:52.784Z,65.78
2023-04-16T23:29:20.596Z,61.53
2023-04-16T23:31:47.745Z,63.80
2023-04-16T23:34:14.843Z,62.03
2023-04-16T23:36:41.937Z,60.95
2023-04-16T23:39:08.588Z,65.15
2023-04-16T23:41:35.247Z,62.80
2023-04-16T23:44:01.807Z,52.53
2023-04-16T23:46:28.555Z,56.42
2023-04-16T23:48:55.455Z,52.85
2023-04-16T23:51:22.327Z,53.92
2023-04-16T23:53:49.044Z,52.33
2023-04-16T23:56:15.966Z,58.22
2023-04-16T23:58:42.510Z,50.60
